메인 페이지
METAR-TAF:

METAR-TAF

공항 :

푸앵트누아르, 콩고

위도: 04-49S, 경도: 011-54E, 고도: 17m

현재 날씨관측

예보는 1 시간 0분 전, 00:00시(UTC)에 발표되었습니다.
6kt
온도 26°C
습도 89%
기압 1014 hPa
시정: 8000m
고도 1000ft 상공 구름 조금
고도 2300ft 상공 구름 보통
고도 3000ft 상공 구름 조금, 적란운.

METAR: FCPP 100000Z 19006KT 8000 FEW010 SCT023 FEW030CB 26/24 Q1014 NOSIG

시각: 02:00 (01:00 UTC)

예보

예보는 2 시간 0분 전, 23:00시(UTC)에 발표되었습니다.
예보 대상 시간: 10일 00시부터 10일 24시까지 (UTC)
4kt
시정: 8000m
고도 2300ft 상공 구름 보통
고도 3000ft 상공 구름 조금, 적란운.
확률 30%
10일 01시부터 10일 03시까지 (UTC)
뇌우, 약한비
전환 중
10일 04시부터 10일 06시까지 (UTC)
고도 1500ft 상공 구름 많음

TAF: FCPP 092300Z 1000/1024 19004KT 8000 SCT023 FEW030CB PROB30 1001/1003 -TSRA BECMG 1004/1006 BKN015

4,000개 이상의 공항 관측 자료 및 예보 (METAR 및 TAF 보고).

지도상에서 검색 가능한 기상관측소가 노란 점과 빨간 점으로 표시되어 있습니다.

기상관측소 명을 보려면 표시 위로 마우스를 이동하세요.

날씨 관측과 예보를 보려면 클릭하세요.

지도 변경 : 확대하려면 엑스 표시가 있는 녹색 버튼, 축소하려면 빼기 표시가 있는 녹색 버튼, 다음 페이지의 지도를 보려면 녹색 화살표를 클릭하세요.


METAR-TAF: